createdAt,value
2022-10-28T00:09:11.369Z,49.78
2022-10-28T00:19:18.965Z,47.10
2022-10-28T00:29:21.916Z,46.78
2022-10-28T00:39:25.308Z,48.85
2022-10-28T00:49:30.130Z,50.33
2022-10-28T00:59:36.958Z,47.65
2022-10-28T01:09:42.246Z,54.30
2022-10-28T01:20:21.593Z,49.72
2022-10-28T01:30:28.260Z,47.35
2022-10-28T01:41:09.441Z,46.20
2022-10-28T01:51:25.541Z,48.50
2022-10-28T02:01:29.309Z,53.45
2022-10-28T02:12:04.669Z,47.85
2022-10-28T02:22:09.811Z,50.72
2022-10-28T02:32:20.235Z,47.17
2022-10-28T02:42:44.524Z,50.38
2022-10-28T02:52:51.502Z,42.42
2022-10-28T03:02:57.870Z,40.67
2022-10-28T03:13:02.892Z,45.50
2022-10-28T03:23:07.223Z,40.95
2022-10-28T03:33:14.214Z,42.88
2022-10-28T03:43:17.990Z,36.77
2022-10-28T03:53:27.685Z,39.63
2022-10-28T04:03:34.780Z,42.50
2022-10-28T04:13:42.474Z,39.43
2022-10-28T04:23:48.156Z,43.93
2022-10-28T04:33:50.495Z,38.10
2022-10-28T04:43:52.728Z,38.63
2022-10-28T04:53:57.076Z,40.30
2022-10-28T05:03:59.363Z,38.35
2022-10-28T05:14:04.597Z,37.97
2022-10-28T05:24:08.987Z,41.47
2022-10-28T05:34:13.874Z,35.23
2022-10-28T05:44:20.139Z,35.67
2022-10-28T05:54:22.341Z,35.57
2022-10-28T06:04:27.682Z,37.93
2022-10-28T06:14:29.327Z,39.77
2022-10-28T06:24:31.438Z,36.13
2022-10-28T06:34:37.840Z,37.93
2022-10-28T06:44:42.540Z,34.77
2022-10-28T06:54:48.566Z,33.92
2022-10-28T07:04:50.608Z,33.78
2022-10-28T07:14:52.623Z,34.03
2022-10-28T07:24:57.094Z,27.15
2022-10-28T07:35:01.447Z,26.65
2022-10-28T07:45:07.200Z,31.50
2022-10-28T07:55:12.471Z,27.90
2022-10-28T08:05:17.217Z,26.25
2022-10-28T08:15:24.789Z,31.42
2022-10-28T08:25:28.974Z,28.00
2022-10-28T08:35:35.550Z,26.40
2022-10-28T08:46:02.128Z,29.92
2022-10-28T08:56:46.314Z,34.22
2022-10-28T09:06:50.629Z,30.98
2022-10-28T09:17:35.497Z,32.10
2022-10-28T09:27:55.579Z,26.83
2022-10-28T09:38:18.809Z,29.63
2022-10-28T09:48:31.555Z,33.60
2022-10-28T09:58:38.890Z,32.58
2022-10-28T10:08:45.394Z,28.40
2022-10-28T10:18:54.677Z,28.40
2022-10-28T10:29:01.696Z,31.30
2022-10-28T10:39:24.743Z,24.15
2022-10-28T10:49:30.258Z,29.20
2022-10-28T10:59:35.402Z,26.83
2022-10-28T11:09:45.194Z,30.73
2022-10-28T11:19:54.980Z,23.35
2022-10-28T11:30:00.511Z,24.27
2022-10-28T11:40:46.157Z,22.08
2022-10-28T11:51:02.312Z,24.50
2022-10-28T12:01:44.117Z,21.10
2022-10-28T12:12:41.195Z,18.42
2022-10-28T12:22:49.900Z,19.85
2022-10-28T12:33:07.317Z,16.98
2022-10-28T12:43:36.026Z,14.30
2022-10-28T12:53:53.277Z,14.90
2022-10-28T13:04:47.024Z,14.25
2022-10-28T13:15:12.146Z,14.25
2022-10-28T13:25:38.837Z,13.02
2022-10-28T13:35:43.261Z,15.90
2022-10-28T13:45:56.076Z,10.80
2022-10-28T13:56:12.424Z,14.25
2022-10-28T14:06:31.298Z,15.18
2022-10-28T14:16:33.260Z,31.13
2022-10-28T14:27:06.863Z,17.15
2022-10-28T14:37:32.200Z,24.90
2022-10-28T14:48:01.160Z,16.92
2022-10-28T14:58:18.638Z,13.07
2022-10-28T15:08:21.771Z,13.98
2022-10-28T15:18:26.472Z,12.65
2022-10-28T15:28:28.570Z,14.32
2022-10-28T15:38:51.514Z,19.55
2022-10-28T15:48:57.393Z,18.15
2022-10-28T15:59:21.863Z,18.42
2022-10-28T16:09:29.691Z,35.20
2022-10-28T16:19:37.276Z,26.58
2022-10-28T16:29:41.602Z,25.10
2022-10-28T16:39:45.834Z,16.38
2022-10-28T16:49:54.375Z,19.65
2022-10-28T17:00:00.974Z,23.80
2022-10-28T17:10:03.139Z,15.60
2022-10-28T17:20:06.005Z,18.42
2022-10-28T17:30:08.969Z,14.68
2022-10-28T17:40:16.306Z,14.55
2022-10-28T17:50:18.436Z,17.83
2022-10-28T18:00:23.071Z,16.73
2022-10-28T18:10:27.510Z,13.90
2022-10-28T18:20:34.723Z,17.05
2022-10-28T18:30:39.016Z,15.85
2022-10-28T18:41:05.387Z,14.73
2022-10-28T18:51:13.779Z,14.65
2022-10-28T19:01:21.663Z,13.93
2022-10-28T19:11:30.445Z,13.00
2022-10-28T19:21:33.755Z,15.35
2022-10-28T19:31:42.046Z,12.32
2022-10-28T19:41:51.432Z,12.18
2022-10-28T19:51:53.941Z,14.77
2022-10-28T20:01:56.050Z,12.93
2022-10-28T20:11:59.313Z,10.82
2022-10-28T20:22:01.438Z,13.20
2022-10-28T20:32:05.728Z,13.10
2022-10-28T20:42:07.935Z,11.25
2022-10-28T20:52:16.820Z,11.40
2022-10-28T21:02:20.248Z,11.85
2022-10-28T21:12:26.066Z,10.23
2022-10-28T21:22:28.061Z,11.40
2022-10-28T21:32:38.408Z,13.13
2022-10-28T21:42:40.437Z,8.65
2022-10-28T21:52:47.136Z,14.75
2022-10-28T22:02:57.362Z,13.45
2022-10-28T22:13:06.547Z,13.70
2022-10-28T22:23:08.587Z,12.43
2022-10-28T22:33:10.601Z,11.02
2022-10-28T22:43:15.676Z,14.88
2022-10-28T22:53:22.454Z,13.63
2022-10-28T23:03:29.427Z,31.98
2022-10-28T23:13:31.637Z,13.82
2022-10-28T23:23:38.406Z,12.40
2022-10-28T23:33:40.695Z,13.02
2022-10-28T23:43:43.265Z,14.02
2022-10-28T23:53:47.663Z,13.43
